createdAt,value
2019-05-07T00:01:08.288Z,8.80
2019-05-07T00:05:56.870Z,8.12
2019-05-07T00:11:16.157Z,8.57
2019-05-07T00:16:15.146Z,9.21
2019-05-07T00:21:32.581Z,11.75
2019-05-07T00:26:29.270Z,9.67
2019-05-07T00:31:52.111Z,10.20
2019-05-07T00:36:39.191Z,9.92
2019-05-07T00:42:03.074Z,9.26
2019-05-07T00:46:49.910Z,9.62
2019-05-07T00:52:06.654Z,12.31
2019-05-07T00:57:05.474Z,12.47
2019-05-07T01:02:22.440Z,10.90
2019-05-07T01:07:22.902Z,10.85
2019-05-07T01:12:44.120Z,9.94
2019-05-07T01:17:33.503Z,10.50
2019-05-07T01:22:54.828Z,10.18
2019-05-07T01:27:42.788Z,9.31
2019-05-07T01:33:06.236Z,10.54
2019-05-07T01:37:55.477Z,9.74
2019-05-07T01:43:18.991Z,8.72
2019-05-07T01:48:07.436Z,9.61
2019-05-07T01:53:29.502Z,9.58
2019-05-07T01:58:17.937Z,9.38
2019-05-07T02:03:37.336Z,9.86
2019-05-07T02:08:35.835Z,10.28
2019-05-07T02:13:57.639Z,10.74
2019-05-07T02:18:46.148Z,9.68
2019-05-07T02:24:09.685Z,11.53
2019-05-07T02:28:58.092Z,11.63
2019-05-07T02:34:14.050Z,10.69
2019-05-07T02:39:12.708Z,10.85
2019-05-07T02:44:24.961Z,11.03
2019-05-07T02:49:24.850Z,9.48
2019-05-07T02:54:47.036Z,11.80
2019-05-07T02:59:43.873Z,11.50
2019-05-07T03:04:47.513Z,8.83
2019-05-07T03:09:46.345Z,10.96
2019-05-07T03:14:54.967Z,11.14
2019-05-07T03:20:13.610Z,11.42
2019-05-07T03:25:13.542Z,10.04
2019-05-07T03:30:17.699Z,10.77
2019-05-07T03:35:18.198Z,10.02
2019-05-07T03:40:18.748Z,10.23
2019-05-07T03:45:19.304Z,9.52
2019-05-07T03:50:19.129Z,9.63
2019-05-07T03:55:36.072Z,9.35
2019-05-07T04:00:35.105Z,9.61
2019-05-07T04:05:57.104Z,11.01
2019-05-07T04:10:46.102Z,8.66
2019-05-07T04:16:09.377Z,8.82
2019-05-07T04:20:58.365Z,9.96
2019-05-07T04:26:23.224Z,10.35
2019-05-07T04:31:13.920Z,9.91
2019-05-07T04:36:27.437Z,11.40
2019-05-07T04:41:26.029Z,10.62
2019-05-07T04:46:48.131Z,12.03
2019-05-07T04:51:44.404Z,9.66
2019-05-07T04:57:05.164Z,11.47
2019-05-07T05:01:53.710Z,10.41
2019-05-07T05:07:15.750Z,10.98
2019-05-07T05:12:04.874Z,10.33
2019-05-07T05:17:26.360Z,11.12
2019-05-07T05:22:14.860Z,12.38
2019-05-07T05:27:30.615Z,11.59
2019-05-07T05:32:26.930Z,15.93
2019-05-07T05:37:45.911Z,11.47
2019-05-07T05:42:45.441Z,13.56
2019-05-07T05:48:08.773Z,11.89
2019-05-07T05:52:57.259Z,12.48
2019-05-07T05:58:07.631Z,12.03
2019-05-07T06:03:09.173Z,12.43
2019-05-07T06:08:17.471Z,11.54
2019-05-07T06:13:13.029Z,12.31
2019-05-07T06:18:37.405Z,13.11
2019-05-07T06:23:26.437Z,12.84
2019-05-07T06:28:49.290Z,12.96
2019-05-07T06:33:38.446Z,13.99
2019-05-07T06:39:01.957Z,13.30
2019-05-07T06:43:49.106Z,13.44
2019-05-07T06:49:12.668Z,12.35
2019-05-07T06:53:59.833Z,13.18
2019-05-07T06:59:15.652Z,12.61
2019-05-07T07:04:14.724Z,15.48
2019-05-07T07:09:39.353Z,14.50
2019-05-07T07:14:28.331Z,12.52
2019-05-07T07:19:52.330Z,13.53
2019-05-07T07:24:39.241Z,15.34
2019-05-07T07:29:49.823Z,15.29
2019-05-07T07:34:49.348Z,15.58
2019-05-07T07:40:12.843Z,15.77
2019-05-07T07:45:02.836Z,16.01
2019-05-07T07:50:22.502Z,17.11
2019-05-07T07:55:12.638Z,15.61
2019-05-07T08:00:32.871Z,15.17
2019-05-07T08:05:21.951Z,15.73
2019-05-07T08:10:44.355Z,15.38
2019-05-07T08:15:33.367Z,13.30
2019-05-07T08:20:54.681Z,13.85
2019-05-07T08:25:43.654Z,15.32
2019-05-07T08:31:03.660Z,13.24
2019-05-07T08:36:02.685Z,14.03
2019-05-07T08:41:16.997Z,14.16
2019-05-07T08:46:16.087Z,12.18
2019-05-07T08:51:32.737Z,11.92
2019-05-07T08:56:31.875Z,12.03
2019-05-07T09:01:53.259Z,12.89
2019-05-07T09:06:43.082Z,10.85
2019-05-07T09:12:03.522Z,10.59
2019-05-07T09:16:52.785Z,12.50
2019-05-07T09:22:15.957Z,10.96
2019-05-07T09:27:07.484Z,10.06
2019-05-07T09:32:13.221Z,8.99
2019-05-07T09:37:12.487Z,9.49
2019-05-07T09:42:32.964Z,8.42
2019-05-07T09:47:29.023Z,13.32
2019-05-07T09:52:53.160Z,9.73
2019-05-07T09:57:42.572Z,11.82
2019-05-07T10:02:58.023Z,7.33
2019-05-07T10:08:01.669Z,8.43
2019-05-07T10:13:04.680Z,10.44
2019-05-07T10:18:03.726Z,8.55
2019-05-07T10:23:26.325Z,9.48
2019-05-07T10:28:22.730Z,11.23
2019-05-07T10:38:48.696Z,8.32
2019-05-07T10:43:37.762Z,7.97
2019-05-07T10:49:01.819Z,10.05
2019-05-07T10:53:48.476Z,7.59
2019-05-07T10:59:12.192Z,6.86
2019-05-07T11:03:58.970Z,8.27
2019-05-07T11:09:22.196Z,8.76
2019-05-07T11:14:09.149Z,8.55
2019-05-07T11:19:32.468Z,7.66
2019-05-07T11:24:20.401Z,7.03
2019-05-07T11:29:38.939Z,6.87
2019-05-07T11:34:38.000Z,9.76
2019-05-07T11:39:59.677Z,7.85
2019-05-07T11:44:48.854Z,6.62
2019-05-07T11:50:07.088Z,8.74
2019-05-07T11:55:06.243Z,6.07
2019-05-07T12:10:04.657Z,5.91
2019-05-07T12:16:22.232Z,5.53
2019-05-07T12:21:31.103Z,5.79
2019-05-07T12:26:22.154Z,7.11
2019-05-07T12:31:42.205Z,4.80
2019-05-07T12:36:32.020Z,5.41
2019-05-07T12:41:52.736Z,6.52
2019-05-07T12:46:42.289Z,7.21
2019-05-07T12:51:57.351Z,7.62
2019-05-07T12:56:56.236Z,3.90
2019-05-07T13:02:21.789Z,5.17
2019-05-07T13:07:14.357Z,6.08
2019-05-07T13:12:37.060Z,4.79
2019-05-07T13:17:25.910Z,6.69
2019-05-07T13:22:47.702Z,4.21
2019-05-07T13:27:36.574Z,5.49
2019-05-07T13:33:01.862Z,5.64
2019-05-07T13:37:48.384Z,5.78
2019-05-07T13:43:07.375Z,6.25
2019-05-07T13:48:06.226Z,4.68
2019-05-07T13:53:29.434Z,6.31
2019-05-07T13:58:24.362Z,5.35
2019-05-07T14:03:33.033Z,6.36
2019-05-07T14:08:32.041Z,6.36
2019-05-07T14:13:46.812Z,5.97
2019-05-07T14:18:45.670Z,6.91
2019-05-07T14:24:08.265Z,6.41
2019-05-07T14:28:57.124Z,5.05
2019-05-07T14:34:15.550Z,4.98
2019-05-07T14:39:14.433Z,6.82
2019-05-07T14:44:36.714Z,6.18
2019-05-07T14:49:25.586Z,6.63
2019-05-07T14:54:42.751Z,5.44
2019-05-07T14:59:39.272Z,5.41
2019-05-07T15:04:58.495Z,4.94
2019-05-07T15:09:58.550Z,5.55
2019-05-07T15:15:12.649Z,5.14
2019-05-07T15:19:59.721Z,4.40
2019-05-07T15:25:15.253Z,5.79
2019-05-07T15:30:14.120Z,4.32
2019-05-07T15:35:35.851Z,6.83
2019-05-07T15:40:24.788Z,4.92
2019-05-07T15:50:37.600Z,6.00
2019-05-07T15:56:01.715Z,4.44
2019-05-07T16:00:48.184Z,4.52
2019-05-07T16:06:12.689Z,5.18
2019-05-07T16:10:58.405Z,5.63
2019-05-07T16:16:13.748Z,4.63
2019-05-07T16:21:12.773Z,5.37
2019-05-07T16:26:34.348Z,6.78
2019-05-07T16:31:24.613Z,4.04
2019-05-07T16:36:38.849Z,4.15
2019-05-07T16:41:38.208Z,4.52
2019-05-07T16:47:02.682Z,4.96
2019-05-07T16:51:47.921Z,5.89
2019-05-07T16:57:09.652Z,4.84
2019-05-07T17:01:58.048Z,4.71
2019-05-07T17:07:14.418Z,4.21
2019-05-07T17:12:13.479Z,4.15
2019-05-07T17:17:35.850Z,5.14
2019-05-07T17:22:32.134Z,3.64
2019-05-07T17:27:42.747Z,3.75
2019-05-07T17:32:29.094Z,3.62
2019-05-07T17:38:05.916Z,4.96
2019-05-07T17:42:40.996Z,4.07
2019-05-07T17:47:56.913Z,4.06
2019-05-07T17:52:56.070Z,3.91
2019-05-07T17:58:12.895Z,4.73
2019-05-07T18:03:10.586Z,4.93
2019-05-07T18:08:29.200Z,3.92
2019-05-07T18:13:27.573Z,5.64
2019-05-07T18:18:47.231Z,6.37
2019-05-07T18:23:46.150Z,6.78
2019-05-07T18:25:08.218Z,8.79
2019-05-07T18:30:14.788Z,6.81
2019-05-07T18:35:16.954Z,7.45
2019-05-07T18:40:22.534Z,7.11
2019-05-07T18:45:21.952Z,7.53
2019-05-07T18:50:37.002Z,7.01
2019-05-07T18:55:37.579Z,7.92
2019-05-07T19:00:51.902Z,8.63
2019-05-07T19:05:38.821Z,8.56
2019-05-07T19:10:55.306Z,7.48
2019-05-07T19:15:56.581Z,7.99
2019-05-07T19:21:11.085Z,7.34
2019-05-07T19:26:09.349Z,7.23
2019-05-07T19:31:28.492Z,8.15
2019-05-07T19:36:29.029Z,8.62
2019-05-07T19:41:37.616Z,10.84
2019-05-07T19:46:36.984Z,8.55
2019-05-07T19:51:52.508Z,7.68
2019-05-07T19:56:52.772Z,11.92
2019-05-07T19:58:23.021Z,10.37
2019-05-07T20:03:16.277Z,8.32
2019-05-07T20:08:24.807Z,9.55
2019-05-07T20:13:32.024Z,8.70
2019-05-07T20:18:32.678Z,9.36
2019-05-07T20:23:43.498Z,8.47
2019-05-07T20:28:32.846Z,8.67
2019-05-07T20:33:52.957Z,9.30
2019-05-07T20:38:49.209Z,10.09
2019-05-07T20:44:11.972Z,9.59
2019-05-07T20:49:02.515Z,9.63
2019-05-07T20:54:22.921Z,9.76
2019-05-07T20:59:12.308Z,8.83
2019-05-07T21:04:26.124Z,9.25
